Delray Beach, FL

12:50 PM EDT on April 27, 2017 (GMT -0400)
Lake Ida - Garden House | | Change Station

Elev 0 ft 26.48 °N, 80.07 °W | Updated 1 second ago

Mostly Cloudy
Mostly Cloudy
91.4 °F
Feels Like 104 °F
N
3.0
Wind Variable Wind from ESE

Today
High -- | Low -- °F
--% Chance of Precip.
Yesterday
High -- | Low -- °F
Precip. -- in
Pressure 29.99 in
Visibility 9.0 miles
Clouds Scattered Clouds 1600 ft
Heat Index 104 °F
Dew Point 76 °F
Humidity 61%
Rainfall 0.00 in
Snow Depth Not available.
6:45 AM 7:50 PM
New Moon, 2% visible
METAR KPMP 271553Z 13010KT 9SM SCT016 29/24 A2998 RMK AO2 SLP154 T02940239
Pressure 29.99 in
Visibility 9.0 miles
Clouds Scattered Clouds 1600 ft
Heat Index 104 °F
Dew Point 76 °F
Humidity 61%
Rainfall 0.00 in
Snow Depth Not available.
6:45 AM 7:50 PM
New Moon, 2% visible
METAR KPMP 271553Z 13010KT 9SM SCT016 29/24 A2998 RMK AO2 SLP154 T02940239

Get Severe Weather Alerts

Thanks for signing up!

Be on the lookout for a verification email in your inbox.

You'll start receiving the daily forecast at 8 AM.

×

10-Day Weather Forecast

Almanac

Astronomy

Apr. 27, 2017 Rise Set
Actual Time
Civil Twilight
Nautical Twilight
Astronomical Twilight
Moon
Length of Visible Light
Length of Day
Tomorrow will be .
, % of the Moon is Illuminated

Today's Extremes

State Highs State Lows

Community

WunderPhotos

WunderBlog® & News

Nearby

Air Quality

  Air Quality AQ Index Pollutant
Not available.

Snow Depth

Station Depth Elevation

Earthquake Activity

City Distance Mag. Time & Date
Minimum magnitude displayed is 2.5.

Coastal Water Temperatures

Place Temperature

Stations

Nearby Weather Stations

Station Location Temp. Windchill Dew Point Humidity Wind Precip. Elev Updated Type
                   

Watches & Warnings

There are currently no watches in effect.